createdAt,value
2018-09-30T00:01:09.308Z,9.76
2018-09-30T00:03:38.345Z,9.75
2018-09-30T00:06:07.457Z,9.36
2018-09-30T00:08:36.507Z,10.00
2018-09-30T00:11:05.590Z,9.97
2018-09-30T00:13:34.652Z,10.36
2018-09-30T00:16:03.742Z,10.19
2018-09-30T00:18:32.746Z,10.06
2018-09-30T00:21:01.877Z,10.05
2018-09-30T00:23:35.044Z,9.78
2018-09-30T00:26:09.529Z,10.04
2018-09-30T00:28:38.553Z,10.18
2018-09-30T00:31:07.849Z,9.89
2018-09-30T00:33:40.980Z,9.82
2018-09-30T00:36:10.114Z,9.52
2018-09-30T00:38:39.206Z,9.63
2018-09-30T00:41:08.285Z,9.47
2018-09-30T00:43:37.398Z,9.55
2018-09-30T00:46:06.433Z,9.53
2018-09-30T00:48:35.876Z,9.74
2018-09-30T00:51:04.977Z,9.29
2018-09-30T00:53:34.093Z,9.51
2018-09-30T00:56:03.175Z,9.68
2018-09-30T00:58:32.269Z,9.44
2018-09-30T01:01:01.336Z,9.21
2018-09-30T01:03:30.471Z,9.24
2018-09-30T01:05:59.510Z,9.58
2018-09-30T01:08:28.640Z,9.43
2018-09-30T01:10:57.769Z,9.18
2018-09-30T01:13:26.872Z,9.55
2018-09-30T01:15:55.916Z,9.38
2018-09-30T01:18:25.006Z,9.08
2018-09-30T01:20:54.118Z,9.12
2018-09-30T01:23:23.251Z,8.90
2018-09-30T01:25:52.321Z,8.75
2018-09-30T01:28:21.438Z,8.91
2018-09-30T01:30:50.485Z,8.72
2018-09-30T01:33:19.586Z,9.09
2018-09-30T01:35:48.774Z,8.94
2018-09-30T01:38:17.921Z,9.02
2018-09-30T01:40:47.012Z,9.00
2018-09-30T01:43:16.150Z,9.16
2018-09-30T01:45:45.263Z,8.98
2018-09-30T01:48:14.396Z,8.76
2018-09-30T01:50:43.515Z,8.78
2018-09-30T01:53:12.593Z,8.83
2018-09-30T01:55:41.653Z,8.92
2018-09-30T01:58:10.746Z,9.07
2018-09-30T02:00:39.844Z,8.94
2018-09-30T02:03:08.959Z,9.02
2018-09-30T02:05:38.025Z,8.83
2018-09-30T02:08:07.237Z,8.60
2018-09-30T02:10:36.301Z,8.45
2018-09-30T02:13:05.368Z,7.79
2018-09-30T02:15:34.508Z,8.27
2018-09-30T02:18:03.602Z,8.37
2018-09-30T02:20:32.697Z,8.25
2018-09-30T02:23:01.797Z,7.34
2018-09-30T02:25:30.870Z,7.81
2018-09-30T02:27:59.960Z,7.83
2018-09-30T02:30:28.988Z,7.87
2018-09-30T02:32:58.114Z,8.08
2018-09-30T02:35:27.186Z,8.20
2018-09-30T02:37:56.287Z,7.92
2018-09-30T02:40:25.408Z,7.98
2018-09-30T02:42:54.501Z,7.39
2018-09-30T02:45:23.557Z,7.67
2018-09-30T02:47:52.640Z,7.84
2018-09-30T02:50:21.694Z,7.24
2018-09-30T02:52:50.908Z,7.57
2018-09-30T02:55:19.975Z,7.81
2018-09-30T02:57:49.068Z,7.60
2018-09-30T03:00:18.146Z,7.36
2018-09-30T03:02:47.236Z,7.88
2018-09-30T03:05:16.333Z,7.73
2018-09-30T03:07:50.579Z,7.84
2018-09-30T03:10:19.619Z,7.92
2018-09-30T03:12:48.667Z,7.88
2018-09-30T03:15:17.806Z,6.99
2018-09-30T03:17:46.890Z,7.54
2018-09-30T03:20:15.992Z,7.57
2018-09-30T03:22:45.077Z,7.51
2018-09-30T03:25:14.173Z,7.03
2018-09-30T03:27:43.250Z,7.54
2018-09-30T03:30:12.361Z,7.57
2018-09-30T03:32:41.512Z,7.68
2018-09-30T03:35:10.636Z,7.84
2018-09-30T03:37:39.686Z,7.75
2018-09-30T03:40:08.823Z,7.71
2018-09-30T03:42:37.892Z,7.69
2018-09-30T03:45:06.792Z,7.50
2018-09-30T03:47:35.866Z,7.45
2018-09-30T03:50:05.047Z,7.26
2018-09-30T03:52:34.084Z,7.18
2018-09-30T03:55:03.284Z,7.43
2018-09-30T03:57:32.353Z,7.57
2018-09-30T04:00:01.486Z,7.31
2018-09-30T04:02:30.575Z,7.51
2018-09-30T04:04:59.945Z,7.15
2018-09-30T04:07:29.024Z,6.50
2018-09-30T04:09:58.132Z,6.66
2018-09-30T04:12:27.229Z,7.14
2018-09-30T04:14:56.374Z,6.86
2018-09-30T04:17:25.551Z,7.03
2018-09-30T04:19:54.643Z,6.62
2018-09-30T04:22:23.736Z,6.55
2018-09-30T04:24:52.845Z,6.91
2018-09-30T04:27:21.891Z,6.93
2018-09-30T04:29:51.029Z,6.57
2018-09-30T04:32:20.085Z,6.74
2018-09-30T04:34:49.204Z,6.10
2018-09-30T04:37:18.277Z,6.45
2018-09-30T04:39:47.308Z,6.07
2018-09-30T04:42:16.402Z,6.49
2018-09-30T04:44:45.446Z,6.24
2018-09-30T04:47:14.541Z,6.06
2018-09-30T04:49:43.603Z,6.59
2018-09-30T04:52:12.708Z,6.10
2018-09-30T04:54:41.837Z,5.96
2018-09-30T04:57:10.918Z,6.26
2018-09-30T04:59:40.003Z,6.35
2018-09-30T05:02:09.139Z,6.72
2018-09-30T05:04:38.171Z,6.62
2018-09-30T05:07:07.278Z,6.90
2018-09-30T05:09:36.320Z,6.64
2018-09-30T05:12:05.460Z,6.78
2018-09-30T05:14:34.526Z,6.57
2018-09-30T05:17:03.619Z,6.45
2018-09-30T05:19:32.688Z,5.81
2018-09-30T05:22:01.845Z,5.64
2018-09-30T05:24:31.029Z,5.82
2018-09-30T05:27:00.207Z,5.61
2018-09-30T05:29:29.264Z,5.78
2018-09-30T05:31:58.465Z,5.74
2018-09-30T05:34:27.623Z,5.98
2018-09-30T05:36:56.816Z,5.79
2018-09-30T05:39:25.944Z,5.82
2018-09-30T05:41:55.098Z,5.73
2018-09-30T05:44:24.205Z,5.79
2018-09-30T05:46:53.394Z,6.29
2018-09-30T05:49:22.565Z,6.32
2018-09-30T05:51:51.798Z,6.50
2018-09-30T05:54:20.956Z,6.65
2018-09-30T05:56:50.090Z,6.29
2018-09-30T05:59:19.156Z,7.12
2018-09-30T06:01:48.291Z,6.44
2018-09-30T06:04:17.377Z,6.40
2018-09-30T06:06:46.517Z,6.68
2018-09-30T06:09:16.641Z,7.44
2018-09-30T06:11:47.760Z,7.64
2018-09-30T06:14:17.328Z,7.46
2018-09-30T06:16:46.384Z,7.66
2018-09-30T06:19:15.452Z,7.20
2018-09-30T06:21:44.592Z,7.15
2018-09-30T06:24:13.767Z,7.71
2018-09-30T06:26:42.896Z,8.19
2018-09-30T06:29:12.055Z,8.79
2018-09-30T06:31:41.232Z,8.57
2018-09-30T06:34:10.338Z,9.12
2018-09-30T06:36:39.564Z,9.03
2018-09-30T06:39:10.127Z,9.70
2018-09-30T06:41:39.609Z,9.03
2018-09-30T06:44:08.771Z,9.33
2018-09-30T06:46:38.000Z,8.82
2018-09-30T06:49:07.123Z,8.75
2018-09-30T06:51:36.302Z,9.11
2018-09-30T06:54:05.453Z,9.40
2018-09-30T06:56:34.585Z,9.46
2018-09-30T06:59:04.959Z,10.03
2018-09-30T07:01:34.209Z,9.63
2018-09-30T07:04:03.358Z,10.53
2018-09-30T07:06:36.568Z,9.46
2018-09-30T07:09:07.551Z,9.78
2018-09-30T07:11:36.932Z,10.18
2018-09-30T07:14:06.165Z,10.53
2018-09-30T07:16:35.308Z,10.45
2018-09-30T07:19:04.565Z,10.69
2018-09-30T07:21:33.709Z,11.13
2018-09-30T07:24:02.892Z,10.57
2018-09-30T07:26:31.974Z,10.43
2018-09-30T07:29:01.101Z,11.05
2018-09-30T07:31:30.547Z,11.38
2018-09-30T07:33:59.989Z,10.73
2018-09-30T07:36:29.384Z,11.70
2018-09-30T07:38:58.545Z,11.72
2018-09-30T07:41:27.604Z,11.89
2018-09-30T07:43:56.756Z,11.40
2018-09-30T07:46:25.822Z,12.28
2018-09-30T07:48:54.973Z,11.96
2018-09-30T07:51:24.114Z,12.53
2018-09-30T07:53:53.296Z,12.34
2018-09-30T07:56:22.421Z,12.28
2018-09-30T07:58:51.635Z,11.89
2018-09-30T08:01:20.774Z,12.13
2018-09-30T08:03:49.991Z,13.70
2018-09-30T08:06:19.165Z,12.39
2018-09-30T08:08:48.341Z,12.81
2018-09-30T08:11:17.633Z,13.35
2018-09-30T08:13:46.820Z,13.61
2018-09-30T08:16:16.037Z,14.40
2018-09-30T08:18:45.363Z,13.62
2018-09-30T08:21:14.496Z,15.12
2018-09-30T08:23:43.662Z,14.79
2018-09-30T08:26:12.782Z,13.93
2018-09-30T08:28:42.252Z,14.17
2018-09-30T08:31:11.422Z,12.39
2018-09-30T08:33:40.621Z,13.49
2018-09-30T08:36:13.370Z,14.54
2018-09-30T08:38:43.141Z,13.91
2018-09-30T08:41:13.209Z,14.31
2018-09-30T08:43:47.959Z,14.05
2018-09-30T08:46:17.193Z,14.34
2018-09-30T08:48:46.356Z,15.29
2018-09-30T08:51:15.672Z,13.96
2018-09-30T08:53:44.899Z,13.98
2018-09-30T08:56:14.249Z,14.98
2018-09-30T08:58:43.467Z,13.27
2018-09-30T09:01:12.663Z,13.56
2018-09-30T09:03:41.864Z,14.27
2018-09-30T09:06:11.038Z,15.35
2018-09-30T09:08:40.192Z,15.84
2018-09-30T09:11:09.323Z,14.09
2018-09-30T09:13:38.572Z,14.36
2018-09-30T09:16:07.683Z,14.53
2018-09-30T09:18:36.941Z,14.98
2018-09-30T09:21:06.110Z,16.28
2018-09-30T09:23:36.554Z,14.98
2018-09-30T09:26:06.232Z,15.07
2018-09-30T09:28:36.219Z,15.00
2018-09-30T09:31:05.423Z,15.12
2018-09-30T09:33:34.642Z,15.37
2018-09-30T09:36:04.666Z,14.34
2018-09-30T09:38:34.102Z,14.78
2018-09-30T09:41:03.312Z,14.99
2018-09-30T09:43:32.541Z,15.11
2018-09-30T09:46:01.710Z,14.84
2018-09-30T09:48:31.010Z,15.76
2018-09-30T09:51:00.347Z,17.07
2018-09-30T09:53:29.852Z,17.67
2018-09-30T09:55:59.033Z,18.40
2018-09-30T09:58:28.149Z,17.71
2018-09-30T10:00:57.424Z,17.35
2018-09-30T10:03:26.541Z,16.11
2018-09-30T10:05:55.761Z,17.19
2018-09-30T10:08:24.864Z,16.89
2018-09-30T10:10:54.020Z,16.18
2018-09-30T10:13:23.229Z,16.71
2018-09-30T10:15:53.465Z,17.75
2018-09-30T10:18:22.604Z,17.42
2018-09-30T10:20:52.095Z,17.11
2018-09-30T10:23:21.225Z,17.73
2018-09-30T10:25:50.392Z,17.45
2018-09-30T10:28:19.586Z,17.24
2018-09-30T10:30:48.913Z,18.29
2018-09-30T10:33:19.326Z,18.70
2018-09-30T10:35:48.497Z,16.50
2018-09-30T10:38:17.601Z,16.95
2018-09-30T10:40:49.257Z,16.58
2018-09-30T10:43:19.269Z,17.92
2018-09-30T10:45:48.983Z,19.38
2018-09-30T10:48:23.019Z,18.34
2018-09-30T10:50:52.259Z,17.59
2018-09-30T10:53:21.432Z,18.46
2018-09-30T10:55:50.649Z,19.55
2018-09-30T10:58:19.836Z,20.27
2018-09-30T11:00:49.102Z,17.80
2018-09-30T11:03:18.320Z,18.38
2018-09-30T11:05:47.572Z,18.87
2018-09-30T11:08:16.833Z,19.30
2018-09-30T11:10:46.016Z,17.17
2018-09-30T11:13:15.115Z,19.50
2018-09-30T11:15:44.368Z,19.38
2018-09-30T11:18:13.502Z,19.23
2018-09-30T11:20:42.971Z,17.59
2018-09-30T11:23:12.181Z,19.36
2018-09-30T11:25:41.384Z,20.32
2018-09-30T11:28:10.550Z,18.87
2018-09-30T11:30:39.884Z,18.72
2018-09-30T11:33:09.059Z,18.22
2018-09-30T11:35:38.222Z,20.33
2018-09-30T11:38:08.470Z,21.24
2018-09-30T11:40:37.666Z,21.33
2018-09-30T11:43:06.858Z,19.25
2018-09-30T11:45:36.085Z,21.67
2018-09-30T11:48:05.289Z,21.27
2018-09-30T11:50:34.497Z,22.37
2018-09-30T11:53:03.614Z,20.80
2018-09-30T11:55:32.881Z,21.68
2018-09-30T11:58:02.177Z,22.13
2018-09-30T12:00:31.337Z,21.42
2018-09-30T12:03:00.507Z,21.16
2018-09-30T12:05:29.669Z,19.19
2018-09-30T12:07:58.869Z,21.54
2018-09-30T12:10:28.022Z,19.37
2018-09-30T12:12:57.177Z,20.02
2018-09-30T12:15:26.326Z,19.61
2018-09-30T12:17:55.486Z,21.68
2018-09-30T12:20:24.709Z,20.09
2018-09-30T12:22:53.906Z,19.05
2018-09-30T12:25:23.105Z,19.27
2018-09-30T12:27:52.292Z,19.53
2018-09-30T12:30:21.474Z,20.04
2018-09-30T12:32:50.581Z,19.85
2018-09-30T12:35:19.747Z,20.34
2018-09-30T12:37:48.877Z,21.42
2018-09-30T12:40:17.981Z,22.73
2018-09-30T12:42:47.106Z,23.70
2018-09-30T12:45:16.245Z,24.15
2018-09-30T12:47:45.423Z,23.64
2018-09-30T12:50:14.630Z,21.44
2018-09-30T12:52:43.767Z,20.45
2018-09-30T12:55:12.963Z,19.87
2018-09-30T12:57:42.071Z,23.25
2018-09-30T13:00:11.832Z,23.91
2018-09-30T13:02:41.014Z,20.27
2018-09-30T13:05:10.669Z,20.96
2018-09-30T13:07:39.907Z,20.28
2018-09-30T13:10:09.480Z,20.23
2018-09-30T13:12:38.575Z,20.13
2018-09-30T13:15:07.804Z,20.01
2018-09-30T13:17:36.967Z,20.80
2018-09-30T13:20:06.678Z,20.88
2018-09-30T13:22:35.830Z,20.13
2018-09-30T13:25:05.013Z,21.53
2018-09-30T13:27:34.149Z,21.07
2018-09-30T13:30:03.365Z,20.87
2018-09-30T13:32:32.577Z,21.40
2018-09-30T13:35:01.696Z,21.50
2018-09-30T13:37:30.877Z,22.55
2018-09-30T13:39:59.996Z,21.41
2018-09-30T13:42:29.153Z,20.79
2018-09-30T13:44:58.486Z,21.63
2018-09-30T13:47:27.669Z,22.69
2018-09-30T13:49:56.861Z,24.44
2018-09-30T13:52:26.081Z,25.00
2018-09-30T13:54:55.516Z,21.84
2018-09-30T13:57:24.716Z,23.44
2018-09-30T13:59:53.993Z,24.51
2018-09-30T14:02:23.220Z,24.96
2018-09-30T14:04:52.460Z,25.94
2018-09-30T14:07:21.753Z,24.18
2018-09-30T14:09:51.047Z,22.67
2018-09-30T14:12:20.223Z,22.32
2018-09-30T14:14:49.462Z,25.26
2018-09-30T14:17:18.638Z,25.83
2018-09-30T14:19:47.873Z,25.59
2018-09-30T14:22:17.063Z,25.45
2018-09-30T14:24:52.821Z,23.87
2018-09-30T14:27:22.499Z,23.83
2018-09-30T14:29:51.518Z,23.68
2018-09-30T14:32:20.732Z,26.87
2018-09-30T14:34:49.996Z,22.87
2018-09-30T14:37:19.454Z,25.51
2018-09-30T14:39:48.685Z,24.27
2018-09-30T14:42:18.057Z,25.33
2018-09-30T14:44:47.329Z,25.85
2018-09-30T14:47:16.745Z,26.46
2018-09-30T14:49:45.929Z,25.19
2018-09-30T14:52:15.221Z,26.82
2018-09-30T14:54:44.451Z,27.50
2018-09-30T14:57:13.775Z,21.50
2018-09-30T14:59:43.034Z,23.10
2018-09-30T15:02:12.828Z,21.92
2018-09-30T15:04:42.151Z,21.96
2018-09-30T15:07:11.493Z,22.32
2018-09-30T15:09:40.594Z,22.04
2018-09-30T15:12:09.786Z,22.59
2018-09-30T15:14:38.977Z,22.66
2018-09-30T15:17:08.297Z,23.35
2018-09-30T15:19:37.526Z,22.21
2018-09-30T15:22:06.895Z,22.39
2018-09-30T15:24:36.115Z,22.06
2018-09-30T15:27:05.362Z,22.46
2018-09-30T15:29:34.567Z,21.88
2018-09-30T15:32:03.749Z,21.67
2018-09-30T15:34:32.985Z,22.09
2018-09-30T15:37:02.286Z,21.52
2018-09-30T15:39:31.473Z,22.04
2018-09-30T15:42:00.669Z,22.12
2018-09-30T15:44:29.901Z,22.08
2018-09-30T15:46:59.111Z,22.10
2018-09-30T15:49:28.635Z,22.02
2018-09-30T15:51:57.883Z,21.53
2018-09-30T15:54:27.096Z,22.09
2018-09-30T15:56:56.209Z,21.60
2018-09-30T15:59:25.436Z,21.00
2018-09-30T16:01:54.626Z,20.97
2018-09-30T16:04:23.805Z,21.61
2018-09-30T16:06:52.998Z,21.37
2018-09-30T16:09:22.230Z,21.44
2018-09-30T16:11:51.358Z,21.64
2018-09-30T16:14:20.821Z,21.33
2018-09-30T16:16:49.977Z,21.63
2018-09-30T16:19:19.183Z,21.44
2018-09-30T16:21:49.974Z,21.75
2018-09-30T16:24:19.279Z,21.87
2018-09-30T16:26:48.415Z,21.77
2018-09-30T16:29:17.711Z,21.97
2018-09-30T16:31:46.980Z,21.71
2018-09-30T16:34:16.349Z,21.83
2018-09-30T16:36:45.541Z,21.56
2018-09-30T16:39:15.107Z,21.78
2018-09-30T16:41:44.321Z,21.60
2018-09-30T16:44:13.445Z,20.88
2018-09-30T16:46:42.577Z,21.15
2018-09-30T16:49:11.919Z,20.73
2018-09-30T16:51:41.106Z,20.60
2018-09-30T16:54:10.342Z,20.80
2018-09-30T16:56:39.494Z,20.78
2018-09-30T16:59:08.764Z,20.62
2018-09-30T17:01:37.965Z,20.18
2018-09-30T17:04:07.194Z,20.36
2018-09-30T17:06:37.081Z,20.21
2018-09-30T17:09:07.122Z,19.88
2018-09-30T17:11:36.359Z,19.99
2018-09-30T17:14:05.876Z,19.95
2018-09-30T17:16:35.032Z,18.72
2018-09-30T17:19:04.176Z,18.35
2018-09-30T17:21:33.509Z,17.90
2018-09-30T17:24:02.918Z,17.84
2018-09-30T17:26:32.136Z,18.00
2018-09-30T17:29:01.393Z,17.74
2018-09-30T17:31:30.515Z,17.97
2018-09-30T17:33:59.669Z,17.98
2018-09-30T17:36:28.726Z,17.95
2018-09-30T17:38:57.905Z,18.12
2018-09-30T17:41:26.967Z,17.90
2018-09-30T17:43:56.097Z,17.94
2018-09-30T17:46:25.445Z,17.87
2018-09-30T17:48:54.564Z,18.01
2018-09-30T17:51:23.638Z,17.94
2018-09-30T17:53:52.861Z,17.90
2018-09-30T17:56:21.963Z,17.59
2018-09-30T17:58:51.131Z,17.81
2018-09-30T18:01:20.252Z,17.68
2018-09-30T18:03:49.361Z,17.94
2018-09-30T18:06:18.556Z,17.81
2018-09-30T18:08:47.756Z,17.75
2018-09-30T18:11:16.969Z,17.95
2018-09-30T18:13:46.096Z,18.00
2018-09-30T18:16:15.341Z,17.78
2018-09-30T18:18:44.545Z,17.93
2018-09-30T18:21:13.663Z,18.09
2018-09-30T18:23:42.746Z,17.29
2018-09-30T18:26:11.987Z,17.76
2018-09-30T18:28:41.086Z,17.15
2018-09-30T18:31:10.258Z,16.77
2018-09-30T18:33:39.685Z,17.36
2018-09-30T18:36:08.910Z,17.73
2018-09-30T18:38:38.016Z,17.77
2018-09-30T18:41:07.413Z,17.65
2018-09-30T18:43:36.629Z,17.89
2018-09-30T18:46:05.814Z,17.88
2018-09-30T18:48:34.963Z,17.95
2018-09-30T18:51:04.154Z,17.74
2018-09-30T18:53:33.265Z,17.63
2018-09-30T18:56:02.533Z,17.61
2018-09-30T18:58:31.560Z,17.90
2018-09-30T19:01:00.989Z,17.86
2018-09-30T19:03:30.126Z,17.98
2018-09-30T19:05:59.242Z,17.32
2018-09-30T19:08:28.428Z,17.00
2018-09-30T19:10:57.712Z,17.17
2018-09-30T19:13:26.879Z,16.59
2018-09-30T19:15:56.103Z,16.71
2018-09-30T19:18:25.142Z,15.71
2018-09-30T19:20:54.468Z,15.81
2018-09-30T19:23:23.573Z,15.87
2018-09-30T19:25:52.693Z,16.75
2018-09-30T19:28:22.126Z,16.52
2018-09-30T19:30:51.234Z,16.35
2018-09-30T19:33:20.388Z,16.22
2018-09-30T19:35:49.532Z,15.68
2018-09-30T19:38:18.589Z,15.46
2018-09-30T19:40:47.737Z,15.46
2018-09-30T19:43:17.200Z,16.07
2018-09-30T19:45:46.320Z,15.70
2018-09-30T19:48:15.427Z,15.93
2018-09-30T19:50:44.809Z,16.29
2018-09-30T19:53:13.988Z,15.63
2018-09-30T19:55:43.121Z,16.13
2018-09-30T19:58:12.606Z,15.77
2018-09-30T20:00:41.882Z,15.26
2018-09-30T20:03:11.379Z,15.62
2018-09-30T20:05:40.508Z,15.39
2018-09-30T20:08:09.629Z,15.55
2018-09-30T20:10:38.888Z,15.83
2018-09-30T20:13:07.972Z,15.94
2018-09-30T20:15:37.161Z,16.09
2018-09-30T20:18:06.351Z,16.02
2018-09-30T20:20:35.468Z,16.09
2018-09-30T20:23:04.544Z,15.90
2018-09-30T20:25:33.716Z,15.88
2018-09-30T20:28:02.918Z,16.05
2018-09-30T20:30:32.075Z,15.75
2018-09-30T20:33:01.185Z,15.34
2018-09-30T20:35:30.332Z,15.33
2018-09-30T20:37:59.425Z,14.84
2018-09-30T20:40:28.629Z,15.22
2018-09-30T20:42:57.702Z,15.14
2018-09-30T20:45:26.872Z,15.22
2018-09-30T20:47:55.942Z,14.99
2018-09-30T20:50:25.138Z,15.00
2018-09-30T20:52:54.271Z,15.04
2018-09-30T20:55:23.400Z,15.11
2018-09-30T20:57:52.549Z,14.70
2018-09-30T21:00:21.749Z,14.69
2018-09-30T21:02:50.925Z,14.11
2018-09-30T21:05:31.073Z,14.53
2018-09-30T21:08:00.179Z,14.63
2018-09-30T21:10:29.356Z,14.27
2018-09-30T21:12:58.420Z,14.48
2018-09-30T21:15:27.560Z,14.82
2018-09-30T21:17:56.764Z,14.56
2018-09-30T21:20:25.893Z,14.28
2018-09-30T21:22:55.049Z,14.63
2018-09-30T21:25:24.195Z,14.84
2018-09-30T21:27:53.341Z,14.49
2018-09-30T21:30:22.437Z,14.39
2018-09-30T21:32:51.628Z,14.10
2018-09-30T21:35:20.677Z,14.35
2018-09-30T21:37:49.852Z,14.11
2018-09-30T21:40:18.905Z,13.90
2018-09-30T21:42:48.015Z,13.78
2018-09-30T21:45:19.993Z,14.35
2018-09-30T21:47:49.170Z,14.10
2018-09-30T21:50:18.329Z,13.97
2018-09-30T21:52:50.494Z,14.09
2018-09-30T21:55:19.593Z,14.12
2018-09-30T21:57:48.729Z,14.39
2018-09-30T22:00:21.861Z,13.89
2018-09-30T22:02:50.986Z,14.08
2018-09-30T22:05:20.048Z,14.13
2018-09-30T22:07:55.849Z,14.38
2018-09-30T22:10:26.870Z,14.34
2018-09-30T22:12:56.560Z,14.18
2018-09-30T22:15:25.668Z,14.04
2018-09-30T22:17:54.876Z,13.92
2018-09-30T22:20:23.973Z,14.13
2018-09-30T22:22:53.055Z,14.03
2018-09-30T22:25:22.160Z,14.28
2018-09-30T22:27:51.321Z,13.86
2018-09-30T22:30:20.417Z,13.83
2018-09-30T22:32:49.552Z,13.79
2018-09-30T22:35:18.637Z,13.82
2018-09-30T22:37:47.888Z,13.60
2018-09-30T22:40:17.086Z,13.94
2018-09-30T22:42:46.290Z,13.96
2018-09-30T22:45:15.364Z,13.57
2018-09-30T22:47:44.526Z,13.17
2018-09-30T22:50:13.610Z,12.93
2018-09-30T22:52:42.726Z,12.73
2018-09-30T22:55:11.825Z,12.93
2018-09-30T22:57:40.929Z,12.53
2018-09-30T23:00:10.225Z,13.04
2018-09-30T23:02:39.340Z,13.32
2018-09-30T23:05:09.328Z,12.97
2018-09-30T23:07:38.565Z,13.54
2018-09-30T23:10:10.896Z,13.61
2018-09-30T23:12:40.008Z,13.17
2018-09-30T23:15:09.106Z,13.96
2018-09-30T23:17:38.205Z,13.60
2018-09-30T23:20:11.596Z,13.73
2018-09-30T23:22:40.748Z,13.71
2018-09-30T23:25:09.849Z,13.69
2018-09-30T23:27:38.985Z,13.26
2018-09-30T23:30:08.347Z,13.50
2018-09-30T23:32:37.739Z,13.67
2018-09-30T23:35:06.891Z,13.44
2018-09-30T23:37:36.044Z,12.93
2018-09-30T23:40:05.270Z,13.36
2018-09-30T23:42:34.413Z,12.95
2018-09-30T23:45:03.484Z,13.36
2018-09-30T23:47:32.584Z,13.05
2018-09-30T23:50:01.656Z,12.75
2018-09-30T23:52:30.805Z,12.40
2018-09-30T23:54:59.899Z,12.97
2018-09-30T23:57:29.032Z,12.98
2018-09-30T23:59:58.054Z,12.71
